sensor_id;sensor_type;location;lat;lon;timestamp;P1;durP1;ratioP1;P2;durP2;ratioP2
75818;SDS011;64453;51.944;9.796;2023-01-31T00:01:06;13.93;;;3.30;;
75818;SDS011;64453;51.944;9.796;2023-01-31T00:03:35;12.40;;;3.10;;
75818;SDS011;64453;51.944;9.796;2023-01-31T00:06:13;11.33;;;3.40;;
75818;SDS011;64453;51.944;9.796;2023-01-31T00:08:44;13.30;;;3.07;;
75818;SDS011;64453;51.944;9.796;2023-01-31T00:11:13;11.70;;;3.33;;
75818;SDS011;64453;51.944;9.796;2023-01-31T00:13:41;11.07;;;3.07;;
75818;SDS011;64453;51.944;9.796;2023-01-31T00:16:09;14.67;;;3.40;;
75818;SDS011;64453;51.944;9.796;2023-01-31T00:18:37;17.13;;;3.03;;
75818;SDS011;64453;51.944;9.796;2023-01-31T00:21:05;11.80;;;3.13;;
75818;SDS011;64453;51.944;9.796;2023-01-31T00:23:34;9.00;;;2.90;;
75818;SDS011;64453;51.944;9.796;2023-01-31T00:26:12;14.00;;;3.10;;
75818;SDS011;64453;51.944;9.796;2023-01-31T00:28:41;9.00;;;2.90;;
75818;SDS011;64453;51.944;9.796;2023-01-31T00:31:10;13.10;;;2.90;;
75818;SDS011;64453;51.944;9.796;2023-01-31T00:33:39;11.90;;;2.90;;
75818;SDS011;64453;51.944;9.796;2023-01-31T00:36:08;8.77;;;2.63;;
75818;SDS011;64453;51.944;9.796;2023-01-31T00:38:39;9.63;;;2.23;;
75818;SDS011;64453;51.944;9.796;2023-01-31T00:41:07;6.60;;;1.90;;
75818;SDS011;64453;51.944;9.796;2023-01-31T00:43:35;8.50;;;2.67;;
75818;SDS011;64453;51.944;9.796;2023-01-31T00:46:02;9.67;;;2.80;;
75818;SDS011;64453;51.944;9.796;2023-01-31T00:48:30;6.10;;;2.10;;
75818;SDS011;64453;51.944;9.796;2023-01-31T00:50:57;6.40;;;2.20;;
75818;SDS011;64453;51.944;9.796;2023-01-31T00:53:24;9.83;;;2.70;;
75818;SDS011;64453;51.944;9.796;2023-01-31T00:55:52;12.33;;;2.60;;
75818;SDS011;64453;51.944;9.796;2023-01-31T00:58:23;5.97;;;2.30;;
75818;SDS011;64453;51.944;9.796;2023-01-31T01:00:51;7.53;;;2.53;;
75818;SDS011;64453;51.944;9.796;2023-01-31T01:03:18;10.67;;;3.07;;
75818;SDS011;64453;51.944;9.796;2023-01-31T01:05:45;8.80;;;2.70;;
75818;SDS011;64453;51.944;9.796;2023-01-31T01:08:12;9.73;;;2.80;;
75818;SDS011;64453;51.944;9.796;2023-01-31T01:10:38;9.10;;;2.77;;
75818;SDS011;64453;51.944;9.796;2023-01-31T01:13:05;9.90;;;2.73;;
75818;SDS011;64453;51.944;9.796;2023-01-31T01:15:35;7.70;;;2.60;;
75818;SDS011;64453;51.944;9.796;2023-01-31T01:18:04;13.80;;;3.50;;
75818;SDS011;64453;51.944;9.796;2023-01-31T01:20:33;9.90;;;3.27;;
75818;SDS011;64453;51.944;9.796;2023-01-31T01:23:00;11.57;;;2.73;;
75818;SDS011;64453;51.944;9.796;2023-01-31T01:25:28;9.77;;;2.77;;
75818;SDS011;64453;51.944;9.796;2023-01-31T01:27:55;14.33;;;3.30;;
75818;SDS011;64453;51.944;9.796;2023-01-31T01:30:22;12.17;;;2.83;;
75818;SDS011;64453;51.944;9.796;2023-01-31T01:32:49;12.83;;;3.00;;
75818;SDS011;64453;51.944;9.796;2023-01-31T01:35:17;14.07;;;3.70;;
75818;SDS011;64453;51.944;9.796;2023-01-31T01:37:44;12.50;;;2.97;;
75818;SDS011;64453;51.944;9.796;2023-01-31T01:40:11;13.47;;;2.83;;
75818;SDS011;64453;51.944;9.796;2023-01-31T01:42:38;9.90;;;2.90;;
75818;SDS011;64453;51.944;9.796;2023-01-31T01:45:09;11.90;;;3.30;;
75818;SDS011;64453;51.944;9.796;2023-01-31T01:47:41;13.00;;;3.73;;
75818;SDS011;64453;51.944;9.796;2023-01-31T01:50:15;10.40;;;2.93;;
75818;SDS011;64453;51.944;9.796;2023-01-31T01:52:46;11.00;;;3.60;;
75818;SDS011;64453;51.944;9.796;2023-01-31T01:55:20;12.00;;;2.50;;
75818;SDS011;64453;51.944;9.796;2023-01-31T01:57:52;13.17;;;3.20;;
75818;SDS011;64453;51.944;9.796;2023-01-31T02:00:22;9.57;;;2.87;;
75818;SDS011;64453;51.944;9.796;2023-01-31T02:02:51;8.07;;;2.90;;
75818;SDS011;64453;51.944;9.796;2023-01-31T02:05:25;5.80;;;2.33;;
75818;SDS011;64453;51.944;9.796;2023-01-31T02:07:56;8.67;;;2.90;;
75818;SDS011;64453;51.944;9.796;2023-01-31T02:10:26;10.67;;;2.67;;
75818;SDS011;64453;51.944;9.796;2023-01-31T02:12:56;7.33;;;2.70;;
75818;SDS011;64453;51.944;9.796;2023-01-31T02:15:24;9.60;;;2.93;;
75818;SDS011;64453;51.944;9.796;2023-01-31T02:17:51;11.83;;;2.93;;
75818;SDS011;64453;51.944;9.796;2023-01-31T02:20:26;9.13;;;2.80;;
75818;SDS011;64453;51.944;9.796;2023-01-31T02:23:32;10.40;;;2.70;;
75818;SDS011;64453;51.944;9.796;2023-01-31T02:32:53;10.43;;;2.80;;
75818;SDS011;64453;51.944;9.796;2023-01-31T02:35:32;11.57;;;2.77;;
75818;SDS011;64453;51.944;9.796;2023-01-31T02:38:15;9.70;;;2.63;;
75818;SDS011;64453;51.944;9.796;2023-01-31T02:40:56;9.27;;;2.83;;
75818;SDS011;64453;51.944;9.796;2023-01-31T02:43:33;9.03;;;2.73;;
75818;SDS011;64453;51.944;9.796;2023-01-31T02:46:22;12.43;;;3.60;;
75818;SDS011;64453;51.944;9.796;2023-01-31T02:49:03;9.60;;;3.10;;
75818;SDS011;64453;51.944;9.796;2023-01-31T02:51:41;14.07;;;2.97;;
75818;SDS011;64453;51.944;9.796;2023-01-31T02:54:31;11.27;;;2.73;;
75818;SDS011;64453;51.944;9.796;2023-01-31T02:57:14;12.27;;;3.23;;
75818;SDS011;64453;51.944;9.796;2023-01-31T02:59:42;14.40;;;3.77;;
75818;SDS011;64453;51.944;9.796;2023-01-31T03:02:09;12.93;;;2.87;;
75818;SDS011;64453;51.944;9.796;2023-01-31T03:04:39;10.33;;;2.83;;
75818;SDS011;64453;51.944;9.796;2023-01-31T03:07:07;10.90;;;3.03;;
75818;SDS011;64453;51.944;9.796;2023-01-31T03:09:40;10.97;;;2.70;;
75818;SDS011;64453;51.944;9.796;2023-01-31T03:12:31;13.97;;;3.07;;
75818;SDS011;64453;51.944;9.796;2023-01-31T03:15:17;10.43;;;3.20;;
75818;SDS011;64453;51.944;9.796;2023-01-31T03:18:24;13.80;;;4.10;;
75818;SDS011;64453;51.944;9.796;2023-01-31T03:20:57;13.37;;;2.87;;
75818;SDS011;64453;51.944;9.796;2023-01-31T03:23:31;12.27;;;2.90;;
75818;SDS011;64453;51.944;9.796;2023-01-31T03:26:02;8.43;;;2.77;;
75818;SDS011;64453;51.944;9.796;2023-01-31T03:28:32;9.57;;;2.40;;
75818;SDS011;64453;51.944;9.796;2023-01-31T03:31:04;13.77;;;2.80;;
75818;SDS011;64453;51.944;9.796;2023-01-31T03:33:41;8.40;;;2.10;;
75818;SDS011;64453;51.944;9.796;2023-01-31T03:36:14;10.50;;;2.80;;
75818;SDS011;64453;51.944;9.796;2023-01-31T03:38:53;11.30;;;2.53;;
75818;SDS011;64453;51.944;9.796;2023-01-31T03:41:33;16.17;;;2.80;;
75818;SDS011;64453;51.944;9.796;2023-01-31T03:44:11;8.57;;;2.53;;
75818;SDS011;64453;51.944;9.796;2023-01-31T03:46:43;10.53;;;2.87;;
75818;SDS011;64453;51.944;9.796;2023-01-31T03:49:14;14.67;;;3.67;;
75818;SDS011;64453;51.944;9.796;2023-01-31T03:51:47;11.00;;;3.10;;
75818;SDS011;64453;51.944;9.796;2023-01-31T03:54:19;9.50;;;2.63;;
75818;SDS011;64453;51.944;9.796;2023-01-31T03:56:51;10.30;;;2.70;;
75818;SDS011;64453;51.944;9.796;2023-01-31T03:59:24;10.20;;;2.97;;
75818;SDS011;64453;51.944;9.796;2023-01-31T04:01:55;9.77;;;2.43;;
75818;SDS011;64453;51.944;9.796;2023-01-31T04:04:25;9.23;;;2.33;;
75818;SDS011;64453;51.944;9.796;2023-01-31T04:06:58;10.80;;;2.87;;
75818;SDS011;64453;51.944;9.796;2023-01-31T04:09:25;8.57;;;2.50;;
75818;SDS011;64453;51.944;9.796;2023-01-31T04:11:52;14.50;;;3.00;;
75818;SDS011;64453;51.944;9.796;2023-01-31T04:14:19;11.33;;;2.47;;
75818;SDS011;64453;51.944;9.796;2023-01-31T04:16:46;8.97;;;2.43;;
75818;SDS011;64453;51.944;9.796;2023-01-31T04:19:12;10.50;;;2.60;;
75818;SDS011;64453;51.944;9.796;2023-01-31T04:21:39;11.17;;;2.80;;
75818;SDS011;64453;51.944;9.796;2023-01-31T04:24:07;14.13;;;2.60;;
75818;SDS011;64453;51.944;9.796;2023-01-31T04:26:34;13.20;;;2.50;;
75818;SDS011;64453;51.944;9.796;2023-01-31T04:29:01;13.07;;;2.70;;
75818;SDS011;64453;51.944;9.796;2023-01-31T04:31:29;8.57;;;2.17;;
75818;SDS011;64453;51.944;9.796;2023-01-31T04:33:56;9.87;;;2.47;;
75818;SDS011;64453;51.944;9.796;2023-01-31T04:36:24;11.50;;;2.63;;
75818;SDS011;64453;51.944;9.796;2023-01-31T04:38:51;8.80;;;2.30;;
75818;SDS011;64453;51.944;9.796;2023-01-31T04:41:19;10.17;;;2.80;;
75818;SDS011;64453;51.944;9.796;2023-01-31T04:43:46;11.10;;;2.90;;
75818;SDS011;64453;51.944;9.796;2023-01-31T04:46:13;7.83;;;2.70;;
75818;SDS011;64453;51.944;9.796;2023-01-31T04:48:40;8.63;;;2.80;;
75818;SDS011;64453;51.944;9.796;2023-01-31T04:51:07;12.20;;;2.70;;
75818;SDS011;64453;51.944;9.796;2023-01-31T04:53:34;17.47;;;2.60;;
75818;SDS011;64453;51.944;9.796;2023-01-31T04:56:01;10.23;;;2.70;;
75818;SDS011;64453;51.944;9.796;2023-01-31T04:58:29;8.10;;;2.57;;
75818;SDS011;64453;51.944;9.796;2023-01-31T05:00:56;12.17;;;3.20;;
75818;SDS011;64453;51.944;9.796;2023-01-31T05:03:23;15.30;;;3.07;;
75818;SDS011;64453;51.944;9.796;2023-01-31T05:05:50;6.53;;;2.20;;
75818;SDS011;64453;51.944;9.796;2023-01-31T05:08:17;11.70;;;3.07;;
75818;SDS011;64453;51.944;9.796;2023-01-31T05:10:44;15.13;;;3.53;;
75818;SDS011;64453;51.944;9.796;2023-01-31T05:13:10;11.67;;;3.93;;
75818;SDS011;64453;51.944;9.796;2023-01-31T05:15:40;14.37;;;3.40;;
75818;SDS011;64453;51.944;9.796;2023-01-31T05:18:06;10.37;;;3.30;;
75818;SDS011;64453;51.944;9.796;2023-01-31T05:20:35;9.30;;;2.93;;
75818;SDS011;64453;51.944;9.796;2023-01-31T05:23:04;10.20;;;2.97;;
75818;SDS011;64453;51.944;9.796;2023-01-31T05:25:33;10.67;;;3.83;;
75818;SDS011;64453;51.944;9.796;2023-01-31T05:28:00;15.37;;;3.23;;
75818;SDS011;64453;51.944;9.796;2023-01-31T05:30:27;11.33;;;3.20;;
75818;SDS011;64453;51.944;9.796;2023-01-31T05:32:55;13.07;;;3.83;;
75818;SDS011;64453;51.944;9.796;2023-01-31T05:35:22;13.23;;;3.33;;
75818;SDS011;64453;51.944;9.796;2023-01-31T05:37:51;10.87;;;3.30;;
75818;SDS011;64453;51.944;9.796;2023-01-31T05:40:18;12.97;;;3.70;;
75818;SDS011;64453;51.944;9.796;2023-01-31T05:42:48;16.23;;;4.40;;
75818;SDS011;64453;51.944;9.796;2023-01-31T05:45:19;8.23;;;3.40;;
75818;SDS011;64453;51.944;9.796;2023-01-31T05:47:46;9.37;;;3.00;;
75818;SDS011;64453;51.944;9.796;2023-01-31T05:50:15;12.43;;;3.70;;
75818;SDS011;64453;51.944;9.796;2023-01-31T05:52:48;11.80;;;4.70;;
75818;SDS011;64453;51.944;9.796;2023-01-31T05:55:16;10.83;;;4.07;;
75818;SDS011;64453;51.944;9.796;2023-01-31T05:57:44;11.97;;;4.13;;
75818;SDS011;64453;51.944;9.796;2023-01-31T06:00:11;9.77;;;4.07;;
75818;SDS011;64453;51.944;9.796;2023-01-31T06:02:39;12.93;;;4.90;;
75818;SDS011;64453;51.944;9.796;2023-01-31T06:05:07;13.17;;;4.40;;
75818;SDS011;64453;51.944;9.796;2023-01-31T06:07:36;10.53;;;4.27;;
75818;SDS011;64453;51.944;9.796;2023-01-31T06:10:04;15.23;;;5.23;;
75818;SDS011;64453;51.944;9.796;2023-01-31T06:12:34;10.47;;;4.70;;
75818;SDS011;64453;51.944;9.796;2023-01-31T06:15:01;11.63;;;4.60;;
75818;SDS011;64453;51.944;9.796;2023-01-31T06:17:29;11.17;;;5.27;;
75818;SDS011;64453;51.944;9.796;2023-01-31T06:19:55;10.20;;;4.40;;
75818;SDS011;64453;51.944;9.796;2023-01-31T06:22:22;14.30;;;4.70;;
75818;SDS011;64453;51.944;9.796;2023-01-31T06:24:51;11.23;;;4.80;;
75818;SDS011;64453;51.944;9.796;2023-01-31T06:27:18;8.40;;;4.47;;
75818;SDS011;64453;51.944;9.796;2023-01-31T06:29:44;14.97;;;5.77;;
75818;SDS011;64453;51.944;9.796;2023-01-31T06:32:11;15.70;;;4.83;;
75818;SDS011;64453;51.944;9.796;2023-01-31T06:34:38;16.10;;;5.70;;
75818;SDS011;64453;51.944;9.796;2023-01-31T06:37:07;10.70;;;4.83;;
75818;SDS011;64453;51.944;9.796;2023-01-31T06:39:34;14.60;;;5.27;;
75818;SDS011;64453;51.944;9.796;2023-01-31T06:42:02;14.83;;;4.97;;
75818;SDS011;64453;51.944;9.796;2023-01-31T06:44:29;9.77;;;4.67;;
75818;SDS011;64453;51.944;9.796;2023-01-31T06:46:57;11.57;;;5.10;;
75818;SDS011;64453;51.944;9.796;2023-01-31T06:49:24;16.43;;;6.20;;
75818;SDS011;64453;51.944;9.796;2023-01-31T06:51:51;13.50;;;5.70;;
75818;SDS011;64453;51.944;9.796;2023-01-31T06:54:18;12.03;;;4.93;;
75818;SDS011;64453;51.944;9.796;2023-01-31T06:56:45;13.40;;;5.20;;
75818;SDS011;64453;51.944;9.796;2023-01-31T06:59:13;12.57;;;5.60;;
75818;SDS011;64453;51.944;9.796;2023-01-31T07:01:40;14.00;;;5.20;;
75818;SDS011;64453;51.944;9.796;2023-01-31T07:04:07;10.87;;;4.83;;
75818;SDS011;64453;51.944;9.796;2023-01-31T07:06:34;15.10;;;4.60;;
75818;SDS011;64453;51.944;9.796;2023-01-31T07:09:01;13.87;;;4.97;;
75818;SDS011;64453;51.944;9.796;2023-01-31T07:11:27;14.40;;;4.70;;
75818;SDS011;64453;51.944;9.796;2023-01-31T07:13:54;12.77;;;5.20;;
75818;SDS011;64453;51.944;9.796;2023-01-31T07:16:23;10.37;;;4.53;;
75818;SDS011;64453;51.944;9.796;2023-01-31T07:18:50;10.43;;;4.80;;
75818;SDS011;64453;51.944;9.796;2023-01-31T07:21:18;11.30;;;4.60;;
75818;SDS011;64453;51.944;9.796;2023-01-31T07:23:45;13.50;;;4.70;;
75818;SDS011;64453;51.944;9.796;2023-01-31T07:26:12;10.70;;;4.13;;
75818;SDS011;64453;51.944;9.796;2023-01-31T07:28:39;9.80;;;4.50;;
75818;SDS011;64453;51.944;9.796;2023-01-31T07:31:06;11.93;;;4.67;;
75818;SDS011;64453;51.944;9.796;2023-01-31T07:33:37;11.57;;;4.40;;
75818;SDS011;64453;51.944;9.796;2023-01-31T07:36:06;13.03;;;3.90;;
75818;SDS011;64453;51.944;9.796;2023-01-31T07:38:37;9.90;;;4.73;;
75818;SDS011;64453;51.944;9.796;2023-01-31T07:41:04;10.20;;;4.20;;
75818;SDS011;64453;51.944;9.796;2023-01-31T07:43:32;8.97;;;4.03;;
75818;SDS011;64453;51.944;9.796;2023-01-31T07:45:59;9.47;;;4.03;;
75818;SDS011;64453;51.944;9.796;2023-01-31T07:48:27;12.83;;;4.13;;
75818;SDS011;64453;51.944;9.796;2023-01-31T07:50:58;11.10;;;3.83;;
75818;SDS011;64453;51.944;9.796;2023-01-31T07:53:27;7.43;;;3.73;;
75818;SDS011;64453;51.944;9.796;2023-01-31T07:56:03;9.93;;;4.57;;
75818;SDS011;64453;51.944;9.796;2023-01-31T07:58:32;9.03;;;4.17;;
75818;SDS011;64453;51.944;9.796;2023-01-31T08:01:00;15.10;;;3.97;;
75818;SDS011;64453;51.944;9.796;2023-01-31T08:03:45;11.03;;;3.90;;
75818;SDS011;64453;51.944;9.796;2023-01-31T08:06:13;9.37;;;3.90;;
75818;SDS011;64453;51.944;9.796;2023-01-31T08:08:41;9.03;;;3.27;;
75818;SDS011;64453;51.944;9.796;2023-01-31T08:11:09;10.43;;;4.03;;
75818;SDS011;64453;51.944;9.796;2023-01-31T08:13:36;13.53;;;4.40;;
75818;SDS011;64453;51.944;9.796;2023-01-31T08:16:04;10.87;;;3.70;;
75818;SDS011;64453;51.944;9.796;2023-01-31T08:18:33;10.27;;;3.93;;
75818;SDS011;64453;51.944;9.796;2023-01-31T08:21:00;12.03;;;3.93;;
75818;SDS011;64453;51.944;9.796;2023-01-31T08:23:29;11.67;;;3.83;;
75818;SDS011;64453;51.944;9.796;2023-01-31T08:26:00;10.27;;;4.43;;
75818;SDS011;64453;51.944;9.796;2023-01-31T08:28:29;17.30;;;6.03;;
75818;SDS011;64453;51.944;9.796;2023-01-31T08:30:57;11.53;;;4.17;;
75818;SDS011;64453;51.944;9.796;2023-01-31T08:33:24;14.03;;;4.60;;
75818;SDS011;64453;51.944;9.796;2023-01-31T08:35:51;14.43;;;4.23;;
75818;SDS011;64453;51.944;9.796;2023-01-31T08:38:18;14.20;;;5.63;;
75818;SDS011;64453;51.944;9.796;2023-01-31T08:40:46;11.87;;;5.07;;
75818;SDS011;64453;51.944;9.796;2023-01-31T08:43:14;11.73;;;6.03;;
75818;SDS011;64453;51.944;9.796;2023-01-31T08:45:41;11.40;;;5.80;;
75818;SDS011;64453;51.944;9.796;2023-01-31T08:48:08;12.43;;;5.40;;
75818;SDS011;64453;51.944;9.796;2023-01-31T08:50:35;16.40;;;5.90;;
75818;SDS011;64453;51.944;9.796;2023-01-31T08:53:02;14.63;;;6.07;;
75818;SDS011;64453;51.944;9.796;2023-01-31T08:55:30;10.73;;;5.90;;
75818;SDS011;64453;51.944;9.796;2023-01-31T08:58:02;11.20;;;5.90;;
75818;SDS011;64453;51.944;9.796;2023-01-31T09:00:30;19.10;;;6.37;;
75818;SDS011;64453;51.944;9.796;2023-01-31T09:02:58;10.53;;;5.60;;
75818;SDS011;64453;51.944;9.796;2023-01-31T09:05:27;14.83;;;6.77;;
75818;SDS011;64453;51.944;9.796;2023-01-31T09:07:56;11.37;;;5.77;;
75818;SDS011;64453;51.944;9.796;2023-01-31T09:10:24;14.90;;;6.50;;
75818;SDS011;64453;51.944;9.796;2023-01-31T09:12:51;17.33;;;7.73;;
75818;SDS011;64453;51.944;9.796;2023-01-31T09:15:19;11.90;;;6.13;;
75818;SDS011;64453;51.944;9.796;2023-01-31T09:17:46;10.03;;;5.87;;
75818;SDS011;64453;51.944;9.796;2023-01-31T09:20:13;13.33;;;6.40;;
75818;SDS011;64453;51.944;9.796;2023-01-31T09:22:40;14.47;;;6.40;;
75818;SDS011;64453;51.944;9.796;2023-01-31T09:25:08;14.90;;;5.87;;
75818;SDS011;64453;51.944;9.796;2023-01-31T09:27:35;10.57;;;5.70;;
75818;SDS011;64453;51.944;9.796;2023-01-31T09:30:04;11.57;;;5.43;;
75818;SDS011;64453;51.944;9.796;2023-01-31T09:32:35;13.23;;;6.13;;
75818;SDS011;64453;51.944;9.796;2023-01-31T09:35:02;12.33;;;6.10;;
75818;SDS011;64453;51.944;9.796;2023-01-31T09:37:30;10.60;;;5.67;;
75818;SDS011;64453;51.944;9.796;2023-01-31T09:39:57;10.97;;;5.87;;
75818;SDS011;64453;51.944;9.796;2023-01-31T09:42:25;10.80;;;5.80;;
75818;SDS011;64453;51.944;9.796;2023-01-31T09:44:59;10.23;;;5.40;;
75818;SDS011;64453;51.944;9.796;2023-01-31T09:47:30;13.90;;;5.60;;
75818;SDS011;64453;51.944;9.796;2023-01-31T09:50:03;9.50;;;5.27;;
75818;SDS011;64453;51.944;9.796;2023-01-31T09:52:45;11.53;;;5.37;;
75818;SDS011;64453;51.944;9.796;2023-01-31T09:55:14;12.40;;;5.57;;
75818;SDS011;64453;51.944;9.796;2023-01-31T09:57:44;10.43;;;5.67;;
75818;SDS011;64453;51.944;9.796;2023-01-31T10:00:20;10.40;;;5.10;;
75818;SDS011;64453;51.944;9.796;2023-01-31T10:03:16;13.10;;;5.70;;
75818;SDS011;64453;51.944;9.796;2023-01-31T10:06:02;13.23;;;6.30;;
75818;SDS011;64453;51.944;9.796;2023-01-31T10:08:42;11.37;;;5.73;;
75818;SDS011;64453;51.944;9.796;2023-01-31T10:11:17;9.90;;;5.13;;
75818;SDS011;64453;51.944;9.796;2023-01-31T10:13:55;11.20;;;5.30;;
75818;SDS011;64453;51.944;9.796;2023-01-31T10:16:27;9.50;;;5.30;;
75818;SDS011;64453;51.944;9.796;2023-01-31T10:19:01;14.00;;;5.50;;
75818;SDS011;64453;51.944;9.796;2023-01-31T10:21:33;11.30;;;4.77;;
75818;SDS011;64453;51.944;9.796;2023-01-31T10:24:08;7.43;;;4.90;;
75818;SDS011;64453;51.944;9.796;2023-01-31T10:26:40;10.23;;;4.70;;
75818;SDS011;64453;51.944;9.796;2023-01-31T10:29:10;6.47;;;4.23;;
75818;SDS011;64453;51.944;9.796;2023-01-31T10:31:44;11.03;;;4.30;;
75818;SDS011;64453;51.944;9.796;2023-01-31T10:34:18;9.60;;;4.27;;
75818;SDS011;64453;51.944;9.796;2023-01-31T10:36:51;7.50;;;4.27;;
75818;SDS011;64453;51.944;9.796;2023-01-31T10:39:25;5.93;;;3.57;;
75818;SDS011;64453;51.944;9.796;2023-01-31T10:42:04;8.60;;;4.17;;
75818;SDS011;64453;51.944;9.796;2023-01-31T10:44:41;6.27;;;3.80;;
75818;SDS011;64453;51.944;9.796;2023-01-31T10:47:16;4.83;;;3.20;;
75818;SDS011;64453;51.944;9.796;2023-01-31T10:49:49;4.77;;;3.17;;
75818;SDS011;64453;51.944;9.796;2023-01-31T10:52:22;8.13;;;3.80;;
75818;SDS011;64453;51.944;9.796;2023-01-31T10:55:14;7.07;;;3.60;;
75818;SDS011;64453;51.944;9.796;2023-01-31T10:57:58;5.10;;;3.40;;
75818;SDS011;64453;51.944;9.796;2023-01-31T11:00:26;4.80;;;3.27;;
75818;SDS011;64453;51.944;9.796;2023-01-31T11:02:56;4.60;;;3.20;;
75818;SDS011;64453;51.944;9.796;2023-01-31T11:05:25;6.27;;;3.47;;
75818;SDS011;64453;51.944;9.796;2023-01-31T11:07:55;2.77;;;2.57;;
75818;SDS011;64453;51.944;9.796;2023-01-31T11:10:25;5.27;;;2.77;;
75818;SDS011;64453;51.944;9.796;2023-01-31T11:12:54;5.03;;;2.47;;
75818;SDS011;64453;51.944;9.796;2023-01-31T11:15:27;3.40;;;2.10;;
75818;SDS011;64453;51.944;9.796;2023-01-31T11:17:56;3.60;;;2.63;;
75818;SDS011;64453;51.944;9.796;2023-01-31T11:20:27;3.40;;;2.60;;
75818;SDS011;64453;51.944;9.796;2023-01-31T11:22:57;4.10;;;2.90;;
75818;SDS011;64453;51.944;9.796;2023-01-31T11:25:27;4.33;;;2.10;;
75818;SDS011;64453;51.944;9.796;2023-01-31T11:27:56;5.60;;;2.53;;
75818;SDS011;64453;51.944;9.796;2023-01-31T11:30:27;5.37;;;2.20;;
75818;SDS011;64453;51.944;9.796;2023-01-31T11:32:57;4.57;;;2.30;;
75818;SDS011;64453;51.944;9.796;2023-01-31T11:35:26;4.90;;;2.13;;
75818;SDS011;64453;51.944;9.796;2023-01-31T11:37:57;2.10;;;1.90;;
75818;SDS011;64453;51.944;9.796;2023-01-31T11:40:28;6.60;;;2.20;;
75818;SDS011;64453;51.944;9.796;2023-01-31T11:42:57;3.37;;;1.97;;
75818;SDS011;64453;51.944;9.796;2023-01-31T11:45:27;2.57;;;1.87;;
75818;SDS011;64453;51.944;9.796;2023-01-31T11:47:57;2.60;;;1.97;;
75818;SDS011;64453;51.944;9.796;2023-01-31T11:50:35;2.63;;;2.00;;
75818;SDS011;64453;51.944;9.796;2023-01-31T11:53:13;4.97;;;2.60;;
75818;SDS011;64453;51.944;9.796;2023-01-31T11:55:43;5.13;;;2.77;;
75818;SDS011;64453;51.944;9.796;2023-01-31T11:58:14;3.40;;;3.07;;
75818;SDS011;64453;51.944;9.796;2023-01-31T12:00:50;3.17;;;2.70;;
75818;SDS011;64453;51.944;9.796;2023-01-31T12:03:21;3.33;;;2.27;;
75818;SDS011;64453;51.944;9.796;2023-01-31T12:05:51;2.10;;;1.90;;
75818;SDS011;64453;51.944;9.796;2023-01-31T12:08:27;5.40;;;2.67;;
75818;SDS011;64453;51.944;9.796;2023-01-31T12:10:56;3.60;;;2.60;;
75818;SDS011;64453;51.944;9.796;2023-01-31T12:13:24;3.83;;;2.60;;
75818;SDS011;64453;51.944;9.796;2023-01-31T12:15:54;3.80;;;2.53;;
75818;SDS011;64453;51.944;9.796;2023-01-31T12:18:27;4.40;;;2.70;;
75818;SDS011;64453;51.944;9.796;2023-01-31T12:21:07;2.60;;;2.40;;
75818;SDS011;64453;51.944;9.796;2023-01-31T12:23:43;4.50;;;3.70;;
75818;SDS011;64453;51.944;9.796;2023-01-31T12:26:22;6.90;;;3.03;;
75818;SDS011;64453;51.944;9.796;2023-01-31T12:29:12;3.83;;;2.50;;
75818;SDS011;64453;51.944;9.796;2023-01-31T12:32:02;4.83;;;2.70;;
75818;SDS011;64453;51.944;9.796;2023-01-31T12:34:49;6.43;;;3.50;;
75818;SDS011;64453;51.944;9.796;2023-01-31T12:37:52;4.47;;;3.07;;
75818;SDS011;64453;51.944;9.796;2023-01-31T12:40:36;4.57;;;2.80;;
75818;SDS011;64453;51.944;9.796;2023-01-31T12:43:10;5.10;;;2.37;;
75818;SDS011;64453;51.944;9.796;2023-01-31T12:45:57;5.50;;;3.00;;
75818;SDS011;64453;51.944;9.796;2023-01-31T12:48:36;4.27;;;2.90;;
75818;SDS011;64453;51.944;9.796;2023-01-31T12:51:30;2.97;;;2.30;;
75818;SDS011;64453;51.944;9.796;2023-01-31T12:54:11;5.00;;;2.50;;
75818;SDS011;64453;51.944;9.796;2023-01-31T12:57:01;3.23;;;2.10;;
75818;SDS011;64453;51.944;9.796;2023-01-31T12:59:48;3.93;;;2.47;;
75818;SDS011;64453;51.944;9.796;2023-01-31T13:02:28;5.73;;;2.33;;
75818;SDS011;64453;51.944;9.796;2023-01-31T13:05:08;3.10;;;2.20;;
75818;SDS011;64453;51.944;9.796;2023-01-31T13:07:46;3.30;;;2.30;;
75818;SDS011;64453;51.944;9.796;2023-01-31T13:10:23;3.70;;;2.67;;
75818;SDS011;64453;51.944;9.796;2023-01-31T13:12:59;3.67;;;2.40;;
75818;SDS011;64453;51.944;9.796;2023-01-31T13:15:27;3.73;;;3.27;;
75818;SDS011;64453;51.944;9.796;2023-01-31T13:18:02;3.90;;;3.03;;
75818;SDS011;64453;51.944;9.796;2023-01-31T13:20:32;4.10;;;3.33;;
75818;SDS011;64453;51.944;9.796;2023-01-31T13:23:05;3.87;;;3.03;;
75818;SDS011;64453;51.944;9.796;2023-01-31T13:25:40;2.90;;;2.70;;
75818;SDS011;64453;51.944;9.796;2023-01-31T13:28:14;3.80;;;2.87;;
75818;SDS011;64453;51.944;9.796;2023-01-31T13:30:47;4.53;;;3.27;;
75818;SDS011;64453;51.944;9.796;2023-01-31T13:33:28;3.10;;;2.80;;
75818;SDS011;64453;51.944;9.796;2023-01-31T13:36:08;3.20;;;3.00;;
75818;SDS011;64453;51.944;9.796;2023-01-31T13:38:44;3.13;;;2.87;;
75818;SDS011;64453;51.944;9.796;2023-01-31T13:41:16;2.50;;;2.20;;
75818;SDS011;64453;51.944;9.796;2023-01-31T13:43:50;3.07;;;2.87;;
75818;SDS011;64453;51.944;9.796;2023-01-31T13:46:17;3.27;;;3.07;;
75818;SDS011;64453;51.944;9.796;2023-01-31T13:48:50;2.87;;;2.60;;
75818;SDS011;64453;51.944;9.796;2023-01-31T13:51:22;3.33;;;3.13;;
75818;SDS011;64453;51.944;9.796;2023-01-31T13:53:55;3.23;;;3.03;;
75818;SDS011;64453;51.944;9.796;2023-01-31T13:56:32;5.07;;;4.67;;
75818;SDS011;64453;51.944;9.796;2023-01-31T13:59:01;2.70;;;2.60;;
75818;SDS011;64453;51.944;9.796;2023-01-31T14:01:33;6.87;;;6.20;;
75818;SDS011;64453;51.944;9.796;2023-01-31T14:04:23;5.60;;;5.20;;
75818;SDS011;64453;51.944;9.796;2023-01-31T14:06:57;4.93;;;4.60;;
75818;SDS011;64453;51.944;9.796;2023-01-31T14:22:27;3.40;;;3.10;;
75818;SDS011;64453;51.944;9.796;2023-01-31T14:24:59;3.60;;;3.30;;
75818;SDS011;64453;51.944;9.796;2023-01-31T14:27:35;3.97;;;3.67;;
75818;SDS011;64453;51.944;9.796;2023-01-31T14:30:21;3.63;;;3.33;;
75818;SDS011;64453;51.944;9.796;2023-01-31T14:33:13;2.93;;;2.73;;
75818;SDS011;64453;51.944;9.796;2023-01-31T14:36:06;3.50;;;3.07;;
75818;SDS011;64453;51.944;9.796;2023-01-31T14:39:16;2.90;;;2.70;;
75818;SDS011;64453;51.944;9.796;2023-01-31T14:42:24;3.57;;;3.37;;
75818;SDS011;64453;51.944;9.796;2023-01-31T14:45:35;2.80;;;2.70;;
75818;SDS011;64453;51.944;9.796;2023-01-31T14:48:28;3.70;;;3.43;;
75818;SDS011;64453;51.944;9.796;2023-01-31T14:51:14;2.97;;;2.87;;
75818;SDS011;64453;51.944;9.796;2023-01-31T14:54:06;3.20;;;2.57;;
75818;SDS011;64453;51.944;9.796;2023-01-31T14:56:55;2.40;;;2.30;;
75818;SDS011;64453;51.944;9.796;2023-01-31T14:59:45;2.83;;;2.73;;
75818;SDS011;64453;51.944;9.796;2023-01-31T15:02:33;2.93;;;2.73;;
75818;SDS011;64453;51.944;9.796;2023-01-31T15:05:10;3.37;;;3.17;;
75818;SDS011;64453;51.944;9.796;2023-01-31T15:07:56;3.60;;;3.33;;
75818;SDS011;64453;51.944;9.796;2023-01-31T15:13:45;3.87;;;3.67;;
75818;SDS011;64453;51.944;9.796;2023-01-31T15:16:18;3.60;;;3.30;;
75818;SDS011;64453;51.944;9.796;2023-01-31T15:18:51;4.80;;;4.37;;
75818;SDS011;64453;51.944;9.796;2023-01-31T15:21:30;4.70;;;4.40;;
75818;SDS011;64453;51.944;9.796;2023-01-31T15:23:59;4.47;;;4.23;;
75818;SDS011;64453;51.944;9.796;2023-01-31T15:26:28;4.97;;;4.67;;
75818;SDS011;64453;51.944;9.796;2023-01-31T15:28:59;4.87;;;4.57;;
75818;SDS011;64453;51.944;9.796;2023-01-31T15:31:29;4.97;;;4.67;;
75818;SDS011;64453;51.944;9.796;2023-01-31T15:34:04;7.57;;;6.97;;